createdAt,value
2019-04-04T00:00:58.296Z,29.05
2019-04-04T00:03:26.875Z,35.98
2019-04-04T00:06:00.055Z,33.20
2019-04-04T00:08:30.898Z,32.67
2019-04-04T00:10:59.462Z,29.52
2019-04-04T00:13:28.384Z,29.98
2019-04-04T00:15:56.936Z,30.32
2019-04-04T00:18:27.456Z,29.15
2019-04-04T00:21:02.521Z,30.30
2019-04-04T00:23:33.628Z,32.15
2019-04-04T00:26:02.361Z,33.90
2019-04-04T00:28:31.476Z,32.53
2019-04-04T00:31:01.411Z,32.58
2019-04-04T00:33:32.027Z,33.08
2019-04-04T00:36:04.949Z,34.05
2019-04-04T00:38:38.647Z,29.15
2019-04-04T00:41:09.237Z,32.08
2019-04-04T00:43:39.482Z,30.60
2019-04-04T00:46:30.855Z,25.57
2019-04-04T00:49:04.926Z,24.60
2019-04-04T00:51:40.869Z,27.45
2019-04-04T00:54:09.468Z,29.75
2019-04-04T00:56:38.031Z,27.22
2019-04-04T00:59:07.027Z,28.02
2019-04-04T01:01:36.335Z,27.07
2019-04-04T01:04:06.736Z,25.70
2019-04-04T01:06:36.757Z,25.32
2019-04-04T01:09:11.741Z,22.27
2019-04-04T01:11:37.823Z,21.77
2019-04-04T01:14:06.913Z,23.98
2019-04-04T01:16:37.670Z,22.48
2019-04-04T01:19:09.966Z,25.97
2019-04-04T01:21:42.833Z,23.38
2019-04-04T01:24:14.893Z,24.27
2019-04-04T01:26:43.449Z,21.68
2019-04-04T01:29:14.022Z,22.30
2019-04-04T01:31:46.015Z,22.10
2019-04-04T01:34:14.757Z,24.40
2019-04-04T01:36:47.384Z,21.35
2019-04-04T01:39:19.314Z,21.25
2019-04-04T01:41:53.181Z,23.25
2019-04-04T01:44:22.115Z,22.15
2019-04-04T01:46:52.331Z,21.60
2019-04-04T01:49:23.621Z,22.58
2019-04-04T01:51:52.539Z,21.33
2019-04-04T01:54:21.089Z,19.45
2019-04-04T01:56:51.558Z,19.23
2019-04-04T01:59:20.359Z,23.60
2019-04-04T02:01:52.304Z,22.82
2019-04-04T02:04:22.947Z,20.00
2019-04-04T02:06:53.137Z,19.85
2019-04-04T02:09:23.918Z,22.22
2019-04-04T02:11:53.163Z,23.47
2019-04-04T02:14:23.123Z,22.52
2019-04-04T02:16:52.173Z,21.82
2019-04-04T02:19:24.584Z,20.10
2019-04-04T02:21:59.809Z,21.62
2019-04-04T02:24:29.839Z,25.95
2019-04-04T02:27:00.272Z,22.27
2019-04-04T02:29:29.214Z,20.15
2019-04-04T02:32:02.328Z,23.73
2019-04-04T02:34:31.462Z,27.93
2019-04-04T02:37:02.400Z,27.52
2019-04-04T02:39:35.079Z,32.35
2019-04-04T02:42:03.182Z,32.08
2019-04-04T02:44:33.015Z,29.77
2019-04-04T02:47:02.035Z,30.25
2019-04-04T02:49:37.003Z,25.88
2019-04-04T02:52:07.869Z,26.30
2019-04-04T02:54:39.993Z,27.55
2019-04-04T02:57:09.645Z,28.02
2019-04-04T02:59:40.790Z,24.72
2019-04-04T03:02:09.744Z,24.25
2019-04-04T03:04:45.888Z,20.25
2019-04-04T03:07:13.591Z,26.97
2019-04-04T03:09:43.792Z,27.67
2019-04-04T03:12:16.493Z,27.05
2019-04-04T03:14:50.262Z,28.60
2019-04-04T03:17:17.627Z,33.33
2019-04-04T03:19:47.836Z,31.20
2019-04-04T03:22:18.808Z,28.40
2019-04-04T03:24:47.373Z,33.70
2019-04-04T03:27:19.469Z,35.38
2019-04-04T03:29:49.886Z,37.10
2019-04-04T03:32:18.993Z,36.50
2019-04-04T03:34:50.027Z,36.88
2019-04-04T03:37:23.225Z,37.08
2019-04-04T03:39:53.289Z,36.60
2019-04-04T03:42:25.188Z,31.23
2019-04-04T03:44:55.722Z,28.80
2019-04-04T03:47:24.771Z,26.95
2019-04-04T03:49:57.707Z,29.02
2019-04-04T03:52:24.943Z,27.30
2019-04-04T03:54:56.864Z,26.50
2019-04-04T03:57:27.122Z,30.77
2019-04-04T03:59:59.093Z,27.42
2019-04-04T04:02:29.840Z,28.92
2019-04-04T04:05:02.001Z,29.42
2019-04-04T04:07:35.857Z,30.17
2019-04-04T04:12:36.712Z,28.92
2019-04-04T04:15:05.722Z,29.85
2019-04-04T04:17:38.237Z,30.12
2019-04-04T04:20:26.144Z,31.10
2019-04-04T04:22:54.715Z,31.68
2019-04-04T04:25:23.637Z,29.77
2019-04-04T04:27:52.571Z,27.98
2019-04-04T04:30:22.036Z,31.17
2019-04-04T04:32:55.721Z,29.07
2019-04-04T04:35:21.695Z,30.08
2019-04-04T04:37:53.344Z,33.45
2019-04-04T04:40:21.699Z,33.15
2019-04-04T04:42:59.710Z,29.05
2019-04-04T04:45:26.863Z,30.57
2019-04-04T04:48:00.028Z,28.23
2019-04-04T04:50:33.659Z,28.85
2019-04-04T04:55:32.207Z,27.75
2019-04-04T04:58:02.720Z,32.35
2019-04-04T05:00:31.578Z,33.67
2019-04-04T05:03:01.864Z,28.45
2019-04-04T05:05:32.304Z,30.30
2019-04-04T05:08:01.248Z,34.08
2019-04-04T05:10:31.301Z,36.15
2019-04-04T05:12:59.862Z,36.77
2019-04-04T05:15:34.029Z,37.33
2019-04-04T05:18:06.630Z,43.35
2019-04-04T05:20:38.199Z,42.10
2019-04-04T05:23:06.773Z,38.73
2019-04-04T05:25:35.345Z,37.85
2019-04-04T05:28:06.191Z,36.53
2019-04-04T05:30:39.825Z,35.40
2019-04-04T05:33:10.078Z,37.25
2019-04-04T05:35:39.412Z,37.65
2019-04-04T05:38:12.099Z,40.00
2019-04-04T05:40:39.024Z,38.73
2019-04-04T05:43:07.639Z,40.88
2019-04-04T05:45:38.741Z,35.17
2019-04-04T05:48:08.679Z,32.40
2019-04-04T05:50:37.449Z,30.08
2019-04-04T05:53:06.394Z,31.10
2019-04-04T05:55:41.857Z,26.23
2019-04-04T05:58:11.339Z,28.77
2019-04-04T06:00:44.102Z,29.20
2019-04-04T06:03:15.284Z,26.03
2019-04-04T06:05:45.062Z,24.72
2019-04-04T06:08:17.010Z,30.35
2019-04-04T06:10:50.016Z,34.65
2019-04-04T06:13:18.277Z,30.93
2019-04-04T06:16:09.283Z,27.20
2019-04-04T06:18:40.999Z,27.13
2019-04-04T06:21:12.515Z,29.60
2019-04-04T06:23:42.781Z,28.60
2019-04-04T06:26:13.022Z,30.05
2019-04-04T06:28:46.304Z,36.90
2019-04-04T06:31:18.595Z,34.05
2019-04-04T06:33:47.549Z,31.50
2019-04-04T06:36:20.867Z,33.63
2019-04-04T06:38:54.574Z,32.60
2019-04-04T06:41:24.100Z,40.60
2019-04-04T06:43:53.296Z,34.27
2019-04-04T06:46:22.852Z,31.68
2019-04-04T06:48:59.099Z,38.58
2019-04-04T06:51:29.379Z,35.70
2019-04-04T06:53:59.729Z,33.65
2019-04-04T06:56:32.536Z,34.03
2019-04-04T06:59:01.219Z,37.20
2019-04-04T07:01:31.670Z,33.23
2019-04-04T07:04:02.779Z,38.20
2019-04-04T07:06:31.871Z,36.77
2019-04-04T07:09:04.083Z,38.02
2019-04-04T07:11:33.001Z,39.58
2019-04-04T07:14:05.392Z,42.90
2019-04-04T07:16:36.821Z,43.55
2019-04-04T07:19:08.139Z,40.83
2019-04-04T07:21:38.745Z,35.40
2019-04-04T07:24:08.252Z,39.35
2019-04-04T07:26:40.821Z,40.17
2019-04-04T07:29:11.058Z,37.85
2019-04-04T07:31:43.320Z,38.85
2019-04-04T07:34:14.232Z,36.68
2019-04-04T07:36:44.396Z,38.42
2019-04-04T07:39:14.292Z,36.60
2019-04-04T07:41:44.991Z,38.08
2019-04-04T07:44:17.327Z,37.17
2019-04-04T07:46:46.283Z,37.10
2019-04-04T07:49:16.852Z,38.05
2019-04-04T07:51:45.445Z,38.45
2019-04-04T07:54:14.663Z,37.35
2019-04-04T07:56:48.742Z,31.42
2019-04-04T07:59:16.868Z,39.03
2019-04-04T08:01:51.361Z,40.98
2019-04-04T08:04:18.689Z,36.73
2019-04-04T08:06:49.197Z,30.82
2019-04-04T08:09:19.159Z,33.88
2019-04-04T08:11:48.706Z,30.82
2019-04-04T08:14:18.925Z,35.73
2019-04-04T08:16:47.856Z,33.63
2019-04-04T08:19:18.532Z,35.38
2019-04-04T08:21:47.359Z,36.25
2019-04-04T08:24:17.683Z,40.45
2019-04-04T08:26:48.708Z,38.73
2019-04-04T08:29:23.327Z,33.28
2019-04-04T08:31:51.900Z,39.33
2019-04-04T08:34:22.260Z,34.50
2019-04-04T08:36:51.126Z,30.23
2019-04-04T08:39:21.279Z,32.03
2019-04-04T08:41:52.479Z,33.90
2019-04-04T08:44:24.269Z,32.85
2019-04-04T08:46:55.606Z,39.05
2019-04-04T08:49:29.128Z,38.17
2019-04-04T08:54:31.101Z,35.48
2019-04-04T08:57:00.311Z,29.42
2019-04-04T08:59:28.957Z,30.45
2019-04-04T09:01:57.874Z,31.23
2019-04-04T09:04:26.809Z,28.20
2019-04-04T09:07:03.035Z,31.80
2019-04-04T09:09:34.787Z,28.92
2019-04-04T09:12:05.296Z,24.20
2019-04-04T09:14:35.784Z,22.27
2019-04-04T09:17:04.739Z,28.75
2019-04-04T09:19:33.331Z,22.95
2019-04-04T09:22:01.892Z,24.52
2019-04-04T09:24:37.420Z,23.32
2019-04-04T09:27:05.956Z,24.75
2019-04-04T09:29:36.308Z,26.02
2019-04-04T09:32:08.346Z,30.32
2019-04-04T09:34:37.103Z,26.00
2019-04-04T09:37:08.721Z,24.65
2019-04-04T09:39:37.907Z,22.60
2019-04-04T09:42:07.686Z,22.40
2019-04-04T09:44:40.532Z,28.55
2019-04-04T09:47:10.458Z,23.25
2019-04-04T09:49:39.073Z,31.12
2019-04-04T09:52:07.988Z,23.30
2019-04-04T09:54:36.876Z,23.60
2019-04-04T09:57:05.620Z,27.25
2019-04-04T09:59:34.569Z,31.62
2019-04-04T10:02:03.493Z,24.67
2019-04-04T10:04:32.433Z,23.07
2019-04-04T10:07:01.159Z,27.60
2019-04-04T10:09:30.075Z,23.95
2019-04-04T10:12:03.346Z,23.70
2019-04-04T10:14:32.101Z,23.67
2019-04-04T10:17:01.002Z,23.10
2019-04-04T10:19:29.901Z,23.45
2019-04-04T10:21:59.354Z,24.07
2019-04-04T10:24:32.960Z,22.85
2019-04-04T10:29:31.073Z,28.65
2019-04-04T10:31:59.806Z,27.60
2019-04-04T10:34:29.085Z,27.87
2019-04-04T10:36:59.017Z,23.45
2019-04-04T10:39:30.125Z,26.45
2019-04-04T10:41:58.908Z,25.02
2019-04-04T10:44:29.308Z,25.90
2019-04-04T10:46:58.256Z,25.30
2019-04-04T10:49:28.265Z,30.55
2019-04-04T10:51:58.427Z,31.30
2019-04-04T10:54:29.673Z,24.67
2019-04-04T10:56:59.816Z,27.80
2019-04-04T10:59:33.961Z,26.37
2019-04-04T11:02:03.050Z,28.38
2019-04-04T11:04:31.920Z,21.62
2019-04-04T11:07:02.052Z,24.52
2019-04-04T11:09:41.974Z,20.40
2019-04-04T11:12:06.760Z,20.50
2019-04-04T11:14:35.706Z,28.45
2019-04-04T11:17:05.000Z,30.05
2019-04-04T11:19:36.970Z,42.55
2019-04-04T11:22:05.893Z,30.50
2019-04-04T11:24:34.853Z,22.93
2019-04-04T11:27:03.773Z,27.67
2019-04-04T11:29:33.127Z,22.82
2019-04-04T11:32:01.700Z,25.92
2019-04-04T11:34:35.038Z,25.45
2019-04-04T11:37:05.170Z,22.42
2019-04-04T11:39:37.225Z,27.82
2019-04-04T11:42:05.837Z,25.97
2019-04-04T11:44:35.682Z,27.85
2019-04-04T11:47:04.255Z,28.42
2019-04-04T11:49:36.575Z,24.82
2019-04-04T11:52:05.576Z,26.52
2019-04-04T11:54:58.801Z,26.07
2019-04-04T11:57:27.569Z,27.25
2019-04-04T11:59:58.381Z,26.75
2019-04-04T12:02:32.943Z,29.72
2019-04-04T12:05:04.705Z,30.52
2019-04-04T12:07:38.056Z,28.50
2019-04-04T12:10:08.249Z,29.80
2019-04-04T12:12:58.541Z,33.28
2019-04-04T12:15:28.398Z,34.43
2019-04-04T12:18:01.309Z,30.40
2019-04-04T12:20:34.406Z,30.77
2019-04-04T12:23:03.324Z,32.17
2019-04-04T12:25:32.211Z,34.92
2019-04-04T12:28:03.730Z,33.95
2019-04-04T12:30:32.682Z,33.40
2019-04-04T12:33:02.811Z,35.58
2019-04-04T12:35:33.557Z,33.63
2019-04-04T12:38:04.367Z,39.15
2019-04-04T12:40:32.939Z,36.42
2019-04-04T12:43:03.597Z,38.20
2019-04-04T12:45:32.142Z,35.73
2019-04-04T12:48:02.723Z,36.60
2019-04-04T12:50:33.379Z,38.53
2019-04-04T12:53:02.488Z,36.38
2019-04-04T12:55:32.594Z,35.33
2019-04-04T12:58:02.834Z,36.90
2019-04-04T13:00:31.442Z,31.62
2019-04-04T13:03:00.212Z,33.40
2019-04-04T13:05:33.833Z,33.15
2019-04-04T13:10:37.639Z,33.80
2019-04-04T13:13:06.649Z,33.67
2019-04-04T13:15:35.455Z,32.75
2019-04-04T13:18:04.595Z,30.70
2019-04-04T13:20:34.767Z,33.53
2019-04-04T13:23:07.040Z,33.83
2019-04-04T13:25:38.999Z,33.53
2019-04-04T13:28:10.851Z,32.70
2019-04-04T13:30:46.580Z,35.25
2019-04-04T13:33:17.464Z,35.95
2019-04-04T13:35:47.886Z,35.13
2019-04-04T13:38:16.469Z,36.95
2019-04-04T13:41:04.291Z,36.08
2019-04-04T13:43:35.840Z,35.78
2019-04-04T13:46:05.767Z,41.20
2019-04-04T13:48:34.954Z,39.45
2019-04-04T13:51:03.558Z,37.70
2019-04-04T13:53:35.695Z,39.92
2019-04-04T13:56:05.621Z,42.55
2019-04-04T13:58:38.310Z,39.03
2019-04-04T14:01:09.113Z,44.70
2019-04-04T14:03:37.844Z,47.70
2019-04-04T14:06:07.339Z,44.95
2019-04-04T14:08:39.996Z,44.80
2019-04-04T14:11:11.378Z,43.25
2019-04-04T14:13:41.632Z,43.75
2019-04-04T14:16:10.490Z,48.75
2019-04-04T14:18:44.423Z,50.23
2019-04-04T14:21:16.565Z,51.25
2019-04-04T14:23:46.746Z,48.58
2019-04-04T14:26:15.318Z,53.38
2019-04-04T14:28:45.469Z,56.08
2019-04-04T14:31:19.119Z,48.63
2019-04-04T14:36:18.399Z,55.23
2019-04-04T14:38:46.969Z,50.38
2019-04-04T14:41:17.283Z,50.75
2019-04-04T14:43:49.806Z,52.17
2019-04-04T14:46:21.837Z,51.25
2019-04-04T14:48:52.135Z,48.45
2019-04-04T14:51:20.745Z,48.42
2019-04-04T14:53:49.334Z,47.23
2019-04-04T14:56:18.227Z,47.78
2019-04-04T14:58:48.486Z,45.70
2019-04-04T15:01:17.761Z,49.98
2019-04-04T15:03:49.769Z,46.98
2019-04-04T15:06:20.486Z,45.90
2019-04-04T15:08:50.887Z,45.03
2019-04-04T15:11:24.341Z,49.18
2019-04-04T15:13:55.260Z,48.25
2019-04-04T15:16:24.115Z,49.53
2019-04-04T15:18:55.819Z,49.05
2019-04-04T15:21:26.427Z,48.38
2019-04-04T15:23:55.335Z,52.30
2019-04-04T15:26:26.330Z,46.90
2019-04-04T15:28:56.767Z,50.25
2019-04-04T15:31:31.928Z,52.48
2019-04-04T15:34:01.092Z,53.60
2019-04-04T15:36:31.955Z,54.05
2019-04-04T15:39:02.721Z,57.10
2019-04-04T15:41:37.263Z,53.00
2019-04-04T15:44:06.402Z,54.60
2019-04-04T15:46:37.654Z,54.83
2019-04-04T15:49:10.821Z,54.48
2019-04-04T15:51:41.373Z,54.20
2019-04-04T15:54:09.954Z,56.75
2019-04-04T15:56:39.157Z,63.42
2019-04-04T15:59:10.100Z,110.22
2019-04-04T16:01:39.595Z,55.00
2019-04-04T16:04:11.350Z,58.68
2019-04-04T16:06:41.704Z,58.75
2019-04-04T16:09:11.288Z,60.23
2019-04-04T16:11:49.538Z,61.53
2019-04-04T16:14:13.564Z,74.22
2019-04-04T16:16:42.967Z,62.55
2019-04-04T16:19:13.476Z,59.30
2019-04-04T16:21:42.396Z,61.70
2019-04-04T16:24:13.366Z,64.05
2019-04-04T16:26:41.940Z,67.22
2019-04-04T16:29:12.460Z,63.70
2019-04-04T16:31:43.696Z,62.80
2019-04-04T16:34:14.002Z,69.40
2019-04-04T16:36:42.796Z,64.05
2019-04-04T16:39:15.284Z,65.95
2019-04-04T16:41:47.252Z,65.97
2019-04-04T16:44:19.159Z,73.62
2019-04-04T16:46:50.059Z,69.60
2019-04-04T16:49:20.599Z,75.45
2019-04-04T16:51:50.539Z,74.12
2019-04-04T16:54:21.188Z,79.90
2019-04-04T16:56:51.269Z,87.42
2019-04-04T16:59:22.559Z,84.60
2019-04-04T17:01:52.805Z,84.13
2019-04-04T17:04:23.984Z,86.45
2019-04-04T17:06:54.900Z,92.45
2019-04-04T17:09:23.723Z,85.45
2019-04-04T17:11:57.555Z,78.72
2019-04-04T17:14:29.884Z,83.10
2019-04-04T17:17:03.583Z,81.45
2019-04-04T17:19:34.362Z,81.75
2019-04-04T17:22:06.008Z,81.02
2019-04-04T17:24:34.897Z,74.85
2019-04-04T17:27:04.345Z,77.55
2019-04-04T17:29:34.510Z,82.45
2019-04-04T17:32:05.730Z,77.92
2019-04-04T17:34:35.540Z,77.97
2019-04-04T17:37:04.278Z,84.00
2019-04-04T17:39:35.569Z,81.15
2019-04-04T17:42:08.923Z,78.17
2019-04-04T17:44:39.039Z,86.78
2019-04-04T17:47:09.307Z,87.82
2019-04-04T17:49:40.306Z,81.15
2019-04-04T17:52:11.637Z,81.22
2019-04-04T17:54:42.797Z,81.97
2019-04-04T17:57:11.926Z,83.42
2019-04-04T17:59:42.916Z,82.15
2019-04-04T18:02:11.889Z,80.12
2019-04-04T18:04:48.212Z,82.37
2019-04-04T18:07:14.729Z,88.07
2019-04-04T18:09:45.682Z,79.80
2019-04-04T18:12:17.022Z,82.30
2019-04-04T18:14:47.612Z,81.47
2019-04-04T18:17:16.489Z,84.58
2019-04-04T18:19:45.356Z,79.55
2019-04-04T18:22:15.608Z,84.97
2019-04-04T18:24:46.811Z,86.40
2019-04-04T18:27:17.384Z,87.85
2019-04-04T18:30:25.868Z,90.20
2019-04-04T18:32:55.607Z,90.42
2019-04-04T18:35:28.016Z,92.67
2019-04-04T18:37:58.625Z,95.85
2019-04-04T18:40:33.677Z,110.48
2019-04-04T18:43:04.685Z,107.50
2019-04-04T18:45:34.746Z,97.65
2019-04-04T18:48:03.309Z,94.97
2019-04-04T18:50:32.419Z,96.63
2019-04-04T18:53:04.232Z,94.80
2019-04-04T18:55:33.384Z,98.60
2019-04-04T18:58:08.700Z,98.87
2019-04-04T19:00:37.911Z,102.72
2019-04-04T19:03:07.013Z,86.82
2019-04-04T19:05:36.279Z,98.92
2019-04-04T19:08:07.100Z,88.55
2019-04-04T19:10:36.257Z,102.32
2019-04-04T19:13:10.161Z,92.30
2019-04-04T19:15:39.077Z,98.35
2019-04-04T19:18:14.185Z,90.83
2019-04-04T19:20:45.434Z,94.87
2019-04-04T19:23:15.728Z,93.27
2019-04-04T19:25:46.280Z,94.03
2019-04-04T19:28:16.377Z,88.90
2019-04-04T19:30:46.615Z,91.22
2019-04-04T19:33:17.144Z,90.80
2019-04-04T19:35:49.004Z,89.58
2019-04-04T19:38:20.977Z,90.15
2019-04-04T19:40:53.520Z,95.75
2019-04-04T19:43:27.181Z,92.40
2019-04-04T19:48:24.702Z,89.22
2019-04-04T19:50:57.750Z,94.35
2019-04-04T19:53:27.006Z,92.72
2019-04-04T19:55:56.314Z,90.55
2019-04-04T19:58:29.183Z,92.72
2019-04-04T20:00:59.516Z,94.13
2019-04-04T20:03:32.921Z,86.45
2019-04-04T20:06:02.108Z,83.55
2019-04-04T20:08:34.105Z,85.47
2019-04-04T20:11:06.250Z,87.95
2019-04-04T20:13:35.170Z,85.70
2019-04-04T20:16:09.036Z,84.52
2019-04-04T20:18:38.021Z,78.65
2019-04-04T20:21:06.943Z,87.37
2019-04-04T20:23:37.587Z,81.40
2019-04-04T20:26:10.983Z,84.13
2019-04-04T20:28:42.509Z,78.62
2019-04-04T20:31:12.830Z,72.37
2019-04-04T20:33:43.474Z,70.78
2019-04-04T20:36:14.550Z,70.67
2019-04-04T20:38:43.961Z,65.95
2019-04-04T20:41:16.708Z,65.78
2019-04-04T20:43:46.006Z,69.15
2019-04-04T20:46:17.771Z,61.63
2019-04-04T20:48:48.346Z,60.90
2019-04-04T20:51:20.795Z,56.68
2019-04-04T20:53:51.017Z,62.33
2019-04-04T20:56:21.119Z,66.82
2019-04-04T20:58:51.049Z,64.65
2019-04-04T21:01:23.517Z,61.55
2019-04-04T21:03:52.697Z,61.75
2019-04-04T21:06:26.313Z,62.83
2019-04-04T21:11:22.791Z,63.23
2019-04-04T21:13:56.531Z,65.55
2019-04-04T21:16:28.443Z,58.55
2019-04-04T21:19:05.108Z,71.02
2019-04-04T21:21:37.377Z,70.55
2019-04-04T21:24:07.665Z,68.83
2019-04-04T21:26:36.440Z,75.95
2019-04-04T21:29:09.859Z,72.97
2019-04-04T21:31:40.806Z,77.62
2019-04-04T21:34:11.627Z,72.32
2019-04-04T21:36:42.300Z,78.85
2019-04-04T21:39:15.637Z,74.53
2019-04-04T21:41:44.584Z,72.47
2019-04-04T21:44:15.991Z,68.05
2019-04-04T21:46:46.749Z,69.65
2019-04-04T21:49:19.030Z,65.03
2019-04-04T21:51:49.554Z,65.42
2019-04-04T21:54:23.175Z,70.90
2019-04-04T21:59:22.070Z,70.75
2019-04-04T22:01:55.601Z,69.42
2019-04-04T22:04:26.505Z,76.75
2019-04-04T22:06:55.613Z,65.67
2019-04-04T22:09:24.590Z,68.02
2019-04-04T22:11:55.394Z,61.25
2019-04-04T22:14:24.140Z,71.50
2019-04-04T22:16:53.112Z,71.50
2019-04-04T22:19:22.055Z,72.10
2019-04-04T22:21:52.327Z,69.85
2019-04-04T22:24:24.319Z,69.45
2019-04-04T22:26:52.872Z,77.00
2019-04-04T22:29:24.688Z,76.75
2019-04-04T22:31:53.664Z,72.12
2019-04-04T22:34:23.256Z,86.15
2019-04-04T22:36:54.264Z,81.53
2019-04-04T22:39:26.276Z,81.40
2019-04-04T22:41:59.583Z,86.37
2019-04-04T22:44:35.063Z,82.12
2019-04-04T22:47:09.912Z,78.47
2019-04-04T22:49:39.871Z,83.47
2019-04-04T22:52:09.155Z,82.20
2019-04-04T22:54:39.670Z,75.22
2019-04-04T22:57:08.745Z,82.75
2019-04-04T22:59:38.845Z,83.75
2019-04-04T23:02:09.256Z,85.62
2019-04-04T23:04:40.960Z,74.53
2019-04-04T23:07:11.114Z,80.00
2019-04-04T23:09:41.439Z,80.35
2019-04-04T23:12:10.194Z,78.05
2019-04-04T23:14:48.119Z,73.70
2019-04-04T23:17:14.741Z,72.00
2019-04-04T23:19:46.994Z,87.35
2019-04-04T23:22:16.101Z,68.05
2019-04-04T23:24:52.987Z,68.00
2019-04-04T23:27:22.397Z,78.55
2019-04-04T23:29:51.325Z,71.42
2019-04-04T23:32:20.062Z,68.57
2019-04-04T23:34:48.971Z,67.58
2019-04-04T23:37:17.950Z,66.25
2019-04-04T23:39:51.347Z,75.22
2019-04-04T23:42:20.253Z,73.97
2019-04-04T23:45:01.155Z,70.85
2019-04-04T23:47:28.075Z,68.75
2019-04-04T23:49:58.494Z,67.53
2019-04-04T23:52:27.597Z,72.27
2019-04-04T23:54:58.309Z,69.90
2019-04-04T23:57:31.003Z,73.05
